Terminal Aerodrome Forecast
Issued by NWS

Home | Current Version | Previous Version | Text Only | Print | Product List | Glossary On
Versions: 1 2 3 4 5 6 7 8 9 10 11 12 13 14 15 16 17 18 19 20 21 22
000
FTUS43 KAPX 252320
TAFTVC
TAF
KTVC 252320Z 2600/2624 23006KT P6SM FEW250
     FM260900 00000KT P6SM FEW250
     FM261500 29006KT P6SM SCT250
     FM261600 29007KT P6SM SCT050
     FM262100 31007KT P6SM SCT250=

USA.gov is the U.S. government's official web portal to all federal, state and local government web resources and services.